Time;durP1;ratioP1;P1;durP2;ratioP2;P2;SDS_P1;SDS_P2;PMS_P1;PMS_P2;Temp;Humidity;BMP_temperature;BMP_pressure;BME280_temperature;BME280_humidity;BME280_pressure;Samples;Min_cycle;Max_cycle;Signal;HPM_P1;HPM_P2
2022/10/13 20:03:06;;;;;;;24.27;14.27;;;14.20;99.90;;;;;;10568024;27;20597;-81
2022/10/13 20:08:11;;;;;;;23.83;14.47;;;15.30;99.90;;;;;;10441993;28;20336;-81
2022/10/13 20:13:13;;;;;;;19.70;14.00;;;16.50;99.90;;;;;;10434864;28;20227;-81
2022/10/13 20:18:16;;;;;;;24.27;14.13;;;17.10;99.90;;;;;;10411657;28;20223;-81
2022/10/13 20:23:18;;;;;;;22.33;15.10;;;17.50;99.90;;;;;;10412049;28;20258;-81
2022/10/13 20:28:21;;;;;;;20.03;14.40;;;17.80;99.90;;;;;;10397961;28;20656;-81
2022/10/13 20:33:23;;;;;;;22.43;14.13;;;18.10;99.90;;;;;;10429129;28;20222;-81
2022/10/13 20:38:27;;;;;;;17.97;13.33;;;18.10;99.90;;;;;;10432262;28;20246;-81
2022/10/13 20:43:30;;;;;;;22.77;14.23;;;18.10;99.90;;;;;;10402609;28;20285;-81
2022/10/13 20:48:36;;;;;;;22.83;14.57;;;18.20;99.90;;;;;;10416300;28;20230;-81
2022/10/13 20:53:59;;;;;;;19.20;13.93;;;18.30;99.90;;;;;;10417683;28;20373;-80
2022/10/13 20:59:07;;;;;;;24.50;17.13;;;18.30;99.90;;;;;;10405306;28;20271;-80
2022/10/13 21:04:10;;;;;;;24.90;15.80;;;18.30;99.90;;;;;;10438925;28;20222;-81
2022/10/13 21:09:12;;;;;;;22.43;15.60;;;18.30;99.90;;;;;;10437327;28;20263;-80
2022/10/13 21:14:16;;;;;;;25.00;16.33;;;18.30;99.90;;;;;;10406817;28;20235;-81
2022/10/13 21:19:19;;;;;;;17.73;14.13;;;18.30;99.90;;;;;;10408865;28;20696;-81
2022/10/13 21:24:21;;;;;;;22.63;15.33;;;18.30;99.90;;;;;;10402661;28;20273;-81
2022/10/13 21:29:24;;;;;;;21.47;15.97;;;18.30;99.90;;;;;;10406009;28;20716;-81
2022/10/13 21:34:26;;;;;;;24.37;15.30;;;18.50;99.90;;;;;;10409822;28;20227;-80
2022/10/13 21:39:29;;;;;;;25.20;16.13;;;18.40;99.90;;;;;;10426459;28;20649;-80
2022/10/13 21:44:31;;;;;;;21.07;15.40;;;18.40;99.90;;;;;;10393152;28;20250;-80
2022/10/13 21:49:34;;;;;;;23.67;16.70;;;18.30;99.90;;;;;;10410855;28;20208;-80
2022/10/13 21:54:36;;;;;;;21.07;15.50;;;18.30;99.90;;;;;;10372374;28;20236;-80
2022/10/13 21:59:39;;;;;;;22.07;15.77;;;18.30;99.90;;;;;;10399220;28;20791;-80
2022/10/13 22:04:41;;;;;;;23.43;16.13;;;18.30;99.90;;;;;;10374640;28;20227;-81
2022/10/13 22:09:44;;;;;;;20.53;15.90;;;18.30;99.90;;;;;;10392271;28;22381;-80
2022/10/13 22:14:46;;;;;;;23.60;16.00;;;18.30;99.90;;;;;;10413861;28;20285;-80
2022/10/13 22:19:52;;;;;;;22.60;16.60;;;18.30;99.90;;;;;;10418588;28;20317;-80
2022/10/13 22:24:55;;;;;;;22.10;15.70;;;18.20;99.90;;;;;;10403750;28;20631;-80
2022/10/13 22:29:57;;;;;;;21.40;15.53;;;18.20;99.90;;;;;;10406531;28;20248;-80
2022/10/13 22:35:00;;;;;;;24.33;17.70;;;18.20;99.90;;;;;;10371400;28;20236;-80
2022/10/13 22:40:02;;;;;;;22.70;15.40;;;18.10;99.90;;;;;;10391362;28;20297;-80
2022/10/13 22:45:06;;;;;;;23.77;17.10;;;18.10;99.90;;;;;;10417546;28;20234;-80
2022/10/13 22:50:09;;;;;;;19.70;14.93;;;18.20;99.90;;;;;;10448438;28;20234;-80
2022/10/13 22:55:12;;;;;;;23.03;16.13;;;18.20;99.90;;;;;;10410544;28;20680;-80
2022/10/13 23:00:15;;;;;;;20.50;15.87;;;18.10;99.90;;;;;;10405467;28;20271;-81
2022/10/13 23:05:17;;;;;;;20.13;16.23;;;18.20;99.90;;;;;;10389391;28;20298;-80
2022/10/13 23:10:20;;;;;;;22.87;16.43;;;18.00;99.90;;;;;;10369296;28;20658;-80
2022/10/13 23:15:22;;;;;;;26.20;16.50;;;18.10;99.90;;;;;;10382324;28;20238;-80
2022/10/13 23:20:25;;;;;;;24.50;16.97;;;18.10;99.90;;;;;;10416308;28;20723;-80
2022/10/13 23:25:27;;;;;;;21.27;15.37;;;18.00;99.90;;;;;;10450711;28;20235;-80
2022/10/13 23:30:30;;;;;;;20.80;16.03;;;18.00;99.90;;;;;;10428651;28;20198;-80
2022/10/13 23:35:33;;;;;;;27.03;17.93;;;18.00;99.90;;;;;;10387590;28;20771;-80
2022/10/13 23:40:35;;;;;;;23.00;16.43;;;18.00;99.90;;;;;;10409577;28;20305;-80
2022/10/13 23:45:38;;;;;;;21.93;16.33;;;18.00;99.90;;;;;;10391784;28;20618;-80
2022/10/13 23:50:41;;;;;;;23.17;16.20;;;18.10;99.90;;;;;;10390233;28;20247;-80
2022/10/13 23:55:43;;;;;;;24.97;16.83;;;18.00;99.90;;;;;;10409305;28;20253;-80
